sensor_id;sensor_type;location;lat;lon;timestamp;P1;durP1;ratioP1;P2;durP2;ratioP2
58372;SDS011;44177;43.356;27.672;2022-09-09T00:00:26;1.83;;;1.42;;
58372;SDS011;44177;43.356;27.672;2022-09-09T00:03:04;1.95;;;1.38;;
58372;SDS011;44177;43.356;27.672;2022-09-09T00:05:39;2.05;;;1.50;;
58372;SDS011;44177;43.356;27.672;2022-09-09T00:08:19;1.50;;;1.40;;
58372;SDS011;44177;43.356;27.672;2022-09-09T00:10:53;1.65;;;1.55;;
58372;SDS011;44177;43.356;27.672;2022-09-09T00:13:41;1.70;;;1.23;;
58372;SDS011;44177;43.356;27.672;2022-09-09T00:16:15;1.20;;;1.10;;
58372;SDS011;44177;43.356;27.672;2022-09-09T00:21:39;1.30;;;1.20;;
58372;SDS011;44177;43.356;27.672;2022-09-09T00:24:17;1.38;;;1.27;;
58372;SDS011;44177;43.356;27.672;2022-09-09T00:27:04;1.92;;;1.23;;
58372;SDS011;44177;43.356;27.672;2022-09-09T00:29:42;1.30;;;1.20;;
58372;SDS011;44177;43.356;27.672;2022-09-09T00:32:16;1.90;;;1.20;;
58372;SDS011;44177;43.356;27.672;2022-09-09T00:34:53;2.10;;;1.40;;
58372;SDS011;44177;43.356;27.672;2022-09-09T00:37:22;1.30;;;1.20;;
58372;SDS011;44177;43.356;27.672;2022-09-09T00:39:50;2.55;;;1.20;;
58372;SDS011;44177;43.356;27.672;2022-09-09T00:42:36;2.30;;;1.45;;
58372;SDS011;44177;43.356;27.672;2022-09-09T00:58:01;1.75;;;1.20;;
58372;SDS011;44177;43.356;27.672;2022-09-09T01:00:27;1.83;;;1.23;;
58372;SDS011;44177;43.356;27.672;2022-09-09T01:05:41;1.38;;;1.27;;
58372;SDS011;44177;43.356;27.672;2022-09-09T01:08:35;1.75;;;1.13;;
58372;SDS011;44177;43.356;27.672;2022-09-09T01:11:19;1.70;;;1.50;;
58372;SDS011;44177;43.356;27.672;2022-09-09T01:13:47;1.88;;;1.15;;
58372;SDS011;44177;43.356;27.672;2022-09-09T01:16:18;1.63;;;1.20;;
58372;SDS011;44177;43.356;27.672;2022-09-09T01:18:44;1.40;;;1.30;;
58372;SDS011;44177;43.356;27.672;2022-09-09T01:26:45;1.45;;;1.35;;
58372;SDS011;44177;43.356;27.672;2022-09-09T01:29:14;1.92;;;1.10;;
58372;SDS011;44177;43.356;27.672;2022-09-09T01:31:57;1.83;;;1.40;;
58372;SDS011;44177;43.356;27.672;2022-09-09T01:34:25;1.70;;;1.20;;
58372;SDS011;44177;43.356;27.672;2022-09-09T01:37:06;1.48;;;1.38;;
58372;SDS011;44177;43.356;27.672;2022-09-09T01:39:37;1.20;;;1.10;;
58372;SDS011;44177;43.356;27.672;2022-09-09T01:42:06;1.80;;;1.13;;
58372;SDS011;44177;43.356;27.672;2022-09-09T01:44:34;1.95;;;1.15;;
58372;SDS011;44177;43.356;27.672;2022-09-09T01:47:00;1.65;;;1.35;;
58372;SDS011;44177;43.356;27.672;2022-09-09T01:49:26;1.45;;;1.13;;
58372;SDS011;44177;43.356;27.672;2022-09-09T01:51:53;3.05;;;1.10;;
58372;SDS011;44177;43.356;27.672;2022-09-09T01:54:20;1.33;;;1.23;;
58372;SDS011;44177;43.356;27.672;2022-09-09T02:05:12;1.30;;;1.20;;
58372;SDS011;44177;43.356;27.672;2022-09-09T02:07:40;1.20;;;1.10;;
58372;SDS011;44177;43.356;27.672;2022-09-09T02:12:37;1.00;;;1.00;;
58372;SDS011;44177;43.356;27.672;2022-09-09T02:17:50;0.93;;;0.93;;
58372;SDS011;44177;43.356;27.672;2022-09-09T02:20:18;1.08;;;1.00;;
58372;SDS011;44177;43.356;27.672;2022-09-09T02:22:46;1.20;;;1.10;;
58372;SDS011;44177;43.356;27.672;2022-09-09T02:25:15;3.58;;;1.20;;
58372;SDS011;44177;43.356;27.672;2022-09-09T02:27:43;1.27;;;1.08;;
58372;SDS011;44177;43.356;27.672;2022-09-09T02:30:11;1.17;;;1.08;;
58372;SDS011;44177;43.356;27.672;2022-09-09T02:32:37;1.55;;;1.10;;
58372;SDS011;44177;43.356;27.672;2022-09-09T02:35:08;1.52;;;1.15;;
58372;SDS011;44177;43.356;27.672;2022-09-09T02:37:40;1.33;;;1.10;;
58372;SDS011;44177;43.356;27.672;2022-09-09T02:40:09;1.13;;;1.02;;
58372;SDS011;44177;43.356;27.672;2022-09-09T02:42:42;1.25;;;1.00;;
58372;SDS011;44177;43.356;27.672;2022-09-09T02:45:10;2.15;;;1.00;;
58372;SDS011;44177;43.356;27.672;2022-09-09T02:47:38;2.42;;;1.10;;
58372;SDS011;44177;43.356;27.672;2022-09-09T02:55:47;1.83;;;1.00;;
58372;SDS011;44177;43.356;27.672;2022-09-09T02:58:16;1.75;;;1.15;;
58372;SDS011;44177;43.356;27.672;2022-09-09T03:00:43;1.00;;;0.93;;
58372;SDS011;44177;43.356;27.672;2022-09-09T03:03:11;3.15;;;1.10;;
58372;SDS011;44177;43.356;27.672;2022-09-09T03:05:37;1.17;;;1.08;;
58372;SDS011;44177;43.356;27.672;2022-09-09T03:08:03;3.50;;;1.23;;
58372;SDS011;44177;43.356;27.672;2022-09-09T03:10:34;1.55;;;1.02;;
58372;SDS011;44177;43.356;27.672;2022-09-09T03:13:00;4.30;;;1.00;;
58372;SDS011;44177;43.356;27.672;2022-09-09T03:15:26;1.85;;;1.08;;
58372;SDS011;44177;43.356;27.672;2022-09-09T03:17:55;2.90;;;1.08;;
58372;SDS011;44177;43.356;27.672;2022-09-09T03:20:22;1.23;;;0.95;;
58372;SDS011;44177;43.356;27.672;2022-09-09T03:22:48;2.13;;;1.00;;
58372;SDS011;44177;43.356;27.672;2022-09-09T03:25:14;2.22;;;0.98;;
58372;SDS011;44177;43.356;27.672;2022-09-09T03:27:40;1.30;;;0.98;;
58372;SDS011;44177;43.356;27.672;2022-09-09T03:30:05;3.38;;;0.98;;
58372;SDS011;44177;43.356;27.672;2022-09-09T03:32:32;1.55;;;1.10;;
58372;SDS011;44177;43.356;27.672;2022-09-09T03:34:57;2.90;;;1.00;;
58372;SDS011;44177;43.356;27.672;2022-09-09T03:37:22;3.25;;;1.10;;
58372;SDS011;44177;43.356;27.672;2022-09-09T03:39:48;1.20;;;1.10;;
58372;SDS011;44177;43.356;27.672;2022-09-09T03:42:14;2.25;;;0.90;;
58372;SDS011;44177;43.356;27.672;2022-09-09T03:44:43;1.52;;;1.13;;
58372;SDS011;44177;43.356;27.672;2022-09-09T03:47:10;1.10;;;1.00;;
58372;SDS011;44177;43.356;27.672;2022-09-09T03:49:35;1.48;;;0.95;;
58372;SDS011;44177;43.356;27.672;2022-09-09T03:52:01;1.77;;;1.23;;
58372;SDS011;44177;43.356;27.672;2022-09-09T03:54:26;1.42;;;1.20;;
58372;SDS011;44177;43.356;27.672;2022-09-09T03:56:52;0.98;;;0.90;;
58372;SDS011;44177;43.356;27.672;2022-09-09T03:59:17;1.77;;;1.02;;
58372;SDS011;44177;43.356;27.672;2022-09-09T04:01:43;1.15;;;1.02;;
58372;SDS011;44177;43.356;27.672;2022-09-09T04:04:10;2.83;;;1.17;;
58372;SDS011;44177;43.356;27.672;2022-09-09T04:06:37;1.52;;;0.80;;
58372;SDS011;44177;43.356;27.672;2022-09-09T04:09:02;1.05;;;0.95;;
58372;SDS011;44177;43.356;27.672;2022-09-09T04:11:28;0.90;;;0.90;;
58372;SDS011;44177;43.356;27.672;2022-09-09T04:13:54;1.00;;;0.90;;
58372;SDS011;44177;43.356;27.672;2022-09-09T04:16:19;1.10;;;0.90;;
58372;SDS011;44177;43.356;27.672;2022-09-09T04:18:45;1.08;;;1.00;;
58372;SDS011;44177;43.356;27.672;2022-09-09T04:21:10;2.22;;;0.93;;
58372;SDS011;44177;43.356;27.672;2022-09-09T04:23:37;1.00;;;0.90;;
58372;SDS011;44177;43.356;27.672;2022-09-09T04:26:04;1.65;;;1.05;;
58372;SDS011;44177;43.356;27.672;2022-09-09T04:28:31;1.73;;;0.90;;
58372;SDS011;44177;43.356;27.672;2022-09-09T04:31:08;2.75;;;0.90;;
58372;SDS011;44177;43.356;27.672;2022-09-09T04:33:36;0.80;;;0.80;;
58372;SDS011;44177;43.356;27.672;2022-09-09T04:36:03;2.13;;;1.00;;
58372;SDS011;44177;43.356;27.672;2022-09-09T04:38:28;1.10;;;1.00;;
58372;SDS011;44177;43.356;27.672;2022-09-09T04:40:54;1.67;;;1.00;;
58372;SDS011;44177;43.356;27.672;2022-09-09T04:43:20;3.45;;;1.00;;
58372;SDS011;44177;43.356;27.672;2022-09-09T04:45:49;16.85;;;1.60;;
58372;SDS011;44177;43.356;27.672;2022-09-09T04:48:16;10.30;;;1.63;;
58372;SDS011;44177;43.356;27.672;2022-09-09T04:50:42;28.75;;;3.92;;
58372;SDS011;44177;43.356;27.672;2022-09-09T04:53:07;31.63;;;4.22;;
58372;SDS011;44177;43.356;27.672;2022-09-09T04:55:33;30.65;;;2.95;;
58372;SDS011;44177;43.356;27.672;2022-09-09T04:58:06;25.17;;;2.42;;
58372;SDS011;44177;43.356;27.672;2022-09-09T05:00:33;20.77;;;2.53;;
58372;SDS011;44177;43.356;27.672;2022-09-09T05:03:06;32.72;;;3.35;;
58372;SDS011;44177;43.356;27.672;2022-09-09T05:05:34;17.30;;;2.65;;
58372;SDS011;44177;43.356;27.672;2022-09-09T05:08:03;32.13;;;2.42;;
58372;SDS011;44177;43.356;27.672;2022-09-09T05:10:30;17.02;;;1.85;;
58372;SDS011;44177;43.356;27.672;2022-09-09T05:12:56;17.88;;;2.00;;
58372;SDS011;44177;43.356;27.672;2022-09-09T05:15:22;7.15;;;1.52;;
58372;SDS011;44177;43.356;27.672;2022-09-09T05:17:48;7.53;;;1.45;;
58372;SDS011;44177;43.356;27.672;2022-09-09T05:20:13;4.35;;;1.40;;
58372;SDS011;44177;43.356;27.672;2022-09-09T05:22:39;6.90;;;1.50;;
58372;SDS011;44177;43.356;27.672;2022-09-09T05:25:05;8.25;;;1.70;;
58372;SDS011;44177;43.356;27.672;2022-09-09T05:27:31;5.68;;;1.50;;
58372;SDS011;44177;43.356;27.672;2022-09-09T05:29:59;8.75;;;1.58;;
58372;SDS011;44177;43.356;27.672;2022-09-09T05:32:24;10.32;;;1.40;;
58372;SDS011;44177;43.356;27.672;2022-09-09T05:34:50;2.40;;;1.20;;
58372;SDS011;44177;43.356;27.672;2022-09-09T05:37:16;7.15;;;1.55;;
58372;SDS011;44177;43.356;27.672;2022-09-09T05:39:41;10.27;;;1.70;;
58372;SDS011;44177;43.356;27.672;2022-09-09T05:42:07;8.52;;;1.40;;
58372;SDS011;44177;43.356;27.672;2022-09-09T05:44:32;13.27;;;2.03;;
58372;SDS011;44177;43.356;27.672;2022-09-09T05:46:58;20.20;;;2.05;;
58372;SDS011;44177;43.356;27.672;2022-09-09T05:49:24;33.33;;;2.75;;
58372;SDS011;44177;43.356;27.672;2022-09-09T05:51:50;16.70;;;2.00;;
58372;SDS011;44177;43.356;27.672;2022-09-09T05:54:15;27.25;;;2.42;;
58372;SDS011;44177;43.356;27.672;2022-09-09T05:56:41;20.65;;;2.22;;
58372;SDS011;44177;43.356;27.672;2022-09-09T05:59:07;20.50;;;2.20;;
58372;SDS011;44177;43.356;27.672;2022-09-09T06:01:34;13.77;;;2.25;;
58372;SDS011;44177;43.356;27.672;2022-09-09T06:04:02;14.55;;;2.03;;
58372;SDS011;44177;43.356;27.672;2022-09-09T06:06:33;20.08;;;2.33;;
58372;SDS011;44177;43.356;27.672;2022-09-09T06:11:32;19.85;;;2.53;;
58372;SDS011;44177;43.356;27.672;2022-09-09T06:13:59;17.25;;;2.13;;
58372;SDS011;44177;43.356;27.672;2022-09-09T06:16:26;14.10;;;2.50;;
58372;SDS011;44177;43.356;27.672;2022-09-09T06:18:53;15.50;;;2.28;;
58372;SDS011;44177;43.356;27.672;2022-09-09T06:21:23;15.13;;;2.10;;
58372;SDS011;44177;43.356;27.672;2022-09-09T06:23:50;12.98;;;2.28;;
58372;SDS011;44177;43.356;27.672;2022-09-09T06:26:21;17.45;;;2.45;;
58372;SDS011;44177;43.356;27.672;2022-09-09T06:29:06;15.30;;;2.33;;
58372;SDS011;44177;43.356;27.672;2022-09-09T06:31:33;19.60;;;2.10;;
58372;SDS011;44177;43.356;27.672;2022-09-09T06:34:02;7.28;;;1.90;;
58372;SDS011;44177;43.356;27.672;2022-09-09T06:36:30;17.15;;;2.05;;
58372;SDS011;44177;43.356;27.672;2022-09-09T06:38:57;10.02;;;2.25;;
58372;SDS011;44177;43.356;27.672;2022-09-09T06:41:25;14.18;;;1.98;;
58372;SDS011;44177;43.356;27.672;2022-09-09T06:43:52;15.20;;;2.10;;
58372;SDS011;44177;43.356;27.672;2022-09-09T06:46:27;12.48;;;1.73;;
58372;SDS011;44177;43.356;27.672;2022-09-09T06:48:55;5.30;;;1.70;;
58372;SDS011;44177;43.356;27.672;2022-09-09T06:51:23;9.30;;;2.00;;
58372;SDS011;44177;43.356;27.672;2022-09-09T06:53:51;13.27;;;2.40;;
58372;SDS011;44177;43.356;27.672;2022-09-09T06:58:50;8.43;;;1.80;;
58372;SDS011;44177;43.356;27.672;2022-09-09T07:01:19;11.15;;;2.35;;
58372;SDS011;44177;43.356;27.672;2022-09-09T07:03:52;13.30;;;2.15;;
58372;SDS011;44177;43.356;27.672;2022-09-09T07:06:23;11.45;;;1.88;;
58372;SDS011;44177;43.356;27.672;2022-09-09T07:08:50;10.93;;;1.83;;
58372;SDS011;44177;43.356;27.672;2022-09-09T07:11:18;10.63;;;2.03;;
58372;SDS011;44177;43.356;27.672;2022-09-09T07:13:45;10.10;;;1.70;;
58372;SDS011;44177;43.356;27.672;2022-09-09T07:16:12;8.88;;;2.08;;
58372;SDS011;44177;43.356;27.672;2022-09-09T07:18:40;10.73;;;1.92;;
58372;SDS011;44177;43.356;27.672;2022-09-09T07:21:07;8.18;;;1.77;;
58372;SDS011;44177;43.356;27.672;2022-09-09T07:23:34;10.98;;;2.35;;
58372;SDS011;44177;43.356;27.672;2022-09-09T07:26:00;9.07;;;1.88;;
58372;SDS011;44177;43.356;27.672;2022-09-09T07:28:26;7.40;;;1.70;;
58372;SDS011;44177;43.356;27.672;2022-09-09T07:30:57;7.28;;;1.80;;
58372;SDS011;44177;43.356;27.672;2022-09-09T07:33:26;5.25;;;1.77;;
58372;SDS011;44177;43.356;27.672;2022-09-09T07:35:52;5.93;;;1.75;;
58372;SDS011;44177;43.356;27.672;2022-09-09T07:38:18;3.95;;;1.50;;
58372;SDS011;44177;43.356;27.672;2022-09-09T07:40:45;4.85;;;1.65;;
58372;SDS011;44177;43.356;27.672;2022-09-09T07:43:11;8.60;;;2.00;;
58372;SDS011;44177;43.356;27.672;2022-09-09T07:45:37;7.00;;;1.85;;
58372;SDS011;44177;43.356;27.672;2022-09-09T07:48:03;7.10;;;1.67;;
58372;SDS011;44177;43.356;27.672;2022-09-09T07:50:30;9.15;;;1.20;;
58372;SDS011;44177;43.356;27.672;2022-09-09T07:52:55;8.85;;;1.50;;
58372;SDS011;44177;43.356;27.672;2022-09-09T07:55:21;8.55;;;1.70;;
58372;SDS011;44177;43.356;27.672;2022-09-09T07:57:52;6.80;;;1.65;;
58372;SDS011;44177;43.356;27.672;2022-09-09T08:00:18;6.03;;;1.67;;
58372;SDS011;44177;43.356;27.672;2022-09-09T08:02:45;7.68;;;2.03;;
58372;SDS011;44177;43.356;27.672;2022-09-09T08:05:11;5.38;;;1.40;;
58372;SDS011;44177;43.356;27.672;2022-09-09T08:07:37;8.45;;;1.48;;
58372;SDS011;44177;43.356;27.672;2022-09-09T08:10:03;4.80;;;1.60;;
58372;SDS011;44177;43.356;27.672;2022-09-09T08:12:29;6.05;;;1.33;;
58372;SDS011;44177;43.356;27.672;2022-09-09T08:14:54;7.85;;;1.50;;
58372;SDS011;44177;43.356;27.672;2022-09-09T08:17:20;5.90;;;1.13;;
58372;SDS011;44177;43.356;27.672;2022-09-09T08:19:45;5.72;;;1.50;;
58372;SDS011;44177;43.356;27.672;2022-09-09T08:22:11;4.20;;;1.80;;
58372;SDS011;44177;43.356;27.672;2022-09-09T08:24:36;3.38;;;1.42;;
58372;SDS011;44177;43.356;27.672;2022-09-09T08:27:02;5.93;;;1.40;;
58372;SDS011;44177;43.356;27.672;2022-09-09T08:29:27;5.15;;;1.30;;
58372;SDS011;44177;43.356;27.672;2022-09-09T08:31:57;4.53;;;1.27;;
58372;SDS011;44177;43.356;27.672;2022-09-09T08:34:25;4.25;;;1.33;;
58372;SDS011;44177;43.356;27.672;2022-09-09T08:36:52;4.65;;;1.40;;
58372;SDS011;44177;43.356;27.672;2022-09-09T08:39:18;3.38;;;1.20;;
58372;SDS011;44177;43.356;27.672;2022-09-09T08:52:16;3.00;;;1.05;;
58372;SDS011;44177;43.356;27.672;2022-09-09T08:54:47;4.95;;;1.60;;
58372;SDS011;44177;43.356;27.672;2022-09-09T08:57:18;2.65;;;1.30;;
58372;SDS011;44177;43.356;27.672;2022-09-09T08:59:51;2.08;;;1.10;;
58372;SDS011;44177;43.356;27.672;2022-09-09T09:02:24;4.40;;;1.35;;
58372;SDS011;44177;43.356;27.672;2022-09-09T09:10:49;1.98;;;1.10;;
58372;SDS011;44177;43.356;27.672;2022-09-09T09:13:17;3.38;;;1.27;;
58372;SDS011;44177;43.356;27.672;2022-09-09T09:15:46;3.17;;;1.10;;
58372;SDS011;44177;43.356;27.672;2022-09-09T09:18:15;3.72;;;1.40;;
58372;SDS011;44177;43.356;27.672;2022-09-09T09:23:20;4.80;;;1.23;;
58372;SDS011;44177;43.356;27.672;2022-09-09T09:25:48;3.83;;;1.10;;
58372;SDS011;44177;43.356;27.672;2022-09-09T09:28:18;11.55;;;1.65;;
58372;SDS011;44177;43.356;27.672;2022-09-09T09:36:12;3.05;;;1.13;;
58372;SDS011;44177;43.356;27.672;2022-09-09T09:38:50;4.00;;;1.40;;
58372;SDS011;44177;43.356;27.672;2022-09-09T09:41:28;4.13;;;1.20;;
58372;SDS011;44177;43.356;27.672;2022-09-09T09:44:04;4.35;;;1.08;;
58372;SDS011;44177;43.356;27.672;2022-09-09T09:46:32;2.50;;;1.10;;
58372;SDS011;44177;43.356;27.672;2022-09-09T09:49:01;4.43;;;1.15;;
58372;SDS011;44177;43.356;27.672;2022-09-09T09:51:30;2.15;;;1.00;;
58372;SDS011;44177;43.356;27.672;2022-09-09T09:54:03;5.35;;;1.25;;
58372;SDS011;44177;43.356;27.672;2022-09-09T09:56:38;2.55;;;1.10;;
58372;SDS011;44177;43.356;27.672;2022-09-09T09:59:11;3.58;;;1.17;;
58372;SDS011;44177;43.356;27.672;2022-09-09T10:02:06;4.75;;;1.15;;
58372;SDS011;44177;43.356;27.672;2022-09-09T10:05:02;2.77;;;1.10;;
58372;SDS011;44177;43.356;27.672;2022-09-09T10:16:24;3.22;;;1.20;;
58372;SDS011;44177;43.356;27.672;2022-09-09T10:19:03;2.95;;;1.02;;
58372;SDS011;44177;43.356;27.672;2022-09-09T10:32:49;7.13;;;1.10;;
58372;SDS011;44177;43.356;27.672;2022-09-09T10:38:17;7.72;;;1.08;;
58372;SDS011;44177;43.356;27.672;2022-09-09T10:40:59;5.93;;;1.20;;
58372;SDS011;44177;43.356;27.672;2022-09-09T10:54:32;10.50;;;1.30;;
58372;SDS011;44177;43.356;27.672;2022-09-09T10:59:53;7.25;;;1.23;;
58372;SDS011;44177;43.356;27.672;2022-09-09T11:02:29;6.78;;;1.30;;
58372;SDS011;44177;43.356;27.672;2022-09-09T11:04:57;5.72;;;1.42;;
58372;SDS011;44177;43.356;27.672;2022-09-09T11:09:58;8.57;;;1.25;;
58372;SDS011;44177;43.356;27.672;2022-09-09T11:12:27;5.97;;;1.33;;
58372;SDS011;44177;43.356;27.672;2022-09-09T11:14:58;7.07;;;1.30;;
58372;SDS011;44177;43.356;27.672;2022-09-09T11:17:43;9.93;;;1.40;;
58372;SDS011;44177;43.356;27.672;2022-09-09T11:20:14;4.40;;;1.15;;
58372;SDS011;44177;43.356;27.672;2022-09-09T11:22:54;5.72;;;1.65;;
58372;SDS011;44177;43.356;27.672;2022-09-09T11:25:27;5.25;;;1.20;;
58372;SDS011;44177;43.356;27.672;2022-09-09T11:33:48;4.93;;;1.30;;
58372;SDS011;44177;43.356;27.672;2022-09-09T11:36:22;3.25;;;1.05;;
58372;SDS011;44177;43.356;27.672;2022-09-09T11:39:50;6.05;;;1.20;;
58372;SDS011;44177;43.356;27.672;2022-09-09T11:42:05;4.22;;;1.17;;
58372;SDS011;44177;43.356;27.672;2022-09-09T11:44:32;2.50;;;1.10;;
58372;SDS011;44177;43.356;27.672;2022-09-09T11:46:58;4.93;;;1.10;;
58372;SDS011;44177;43.356;27.672;2022-09-09T11:49:39;7.50;;;1.10;;
58372;SDS011;44177;43.356;27.672;2022-09-09T11:52:13;7.10;;;1.75;;
58372;SDS011;44177;43.356;27.672;2022-09-09T11:54:48;8.25;;;1.30;;
58372;SDS011;44177;43.356;27.672;2022-09-09T11:57:36;5.03;;;1.20;;
58372;SDS011;44177;43.356;27.672;2022-09-09T12:00:02;8.65;;;1.50;;
58372;SDS011;44177;43.356;27.672;2022-09-09T12:02:30;4.35;;;1.13;;
58372;SDS011;44177;43.356;27.672;2022-09-09T12:05:00;4.70;;;1.45;;
58372;SDS011;44177;43.356;27.672;2022-09-09T12:07:51;4.93;;;1.10;;
58372;SDS011;44177;43.356;27.672;2022-09-09T12:10:32;5.32;;;1.25;;
58372;SDS011;44177;43.356;27.672;2022-09-09T12:15:48;2.45;;;1.30;;
58372;SDS011;44177;43.356;27.672;2022-09-09T12:18:42;2.72;;;0.98;;
58372;SDS011;44177;43.356;27.672;2022-09-09T12:21:18;4.60;;;1.35;;
58372;SDS011;44177;43.356;27.672;2022-09-09T12:24:05;5.90;;;1.17;;
58372;SDS011;44177;43.356;27.672;2022-09-09T12:26:38;4.03;;;1.27;;
58372;SDS011;44177;43.356;27.672;2022-09-09T12:29:32;4.10;;;1.35;;
58372;SDS011;44177;43.356;27.672;2022-09-09T12:32:11;5.82;;;1.48;;
58372;SDS011;44177;43.356;27.672;2022-09-09T12:34:44;6.93;;;1.45;;
58372;SDS011;44177;43.356;27.672;2022-09-09T12:40:06;2.75;;;1.23;;
58372;SDS011;44177;43.356;27.672;2022-09-09T12:42:52;4.55;;;1.15;;
58372;SDS011;44177;43.356;27.672;2022-09-09T12:45:21;2.67;;;0.93;;
58372;SDS011;44177;43.356;27.672;2022-09-09T12:47:55;3.80;;;1.13;;
58372;SDS011;44177;43.356;27.672;2022-09-09T12:50:29;4.22;;;1.40;;
58372;SDS011;44177;43.356;27.672;2022-09-09T12:52:57;27.02;;;2.47;;
58372;SDS011;44177;43.356;27.672;2022-09-09T12:55:30;4.55;;;1.35;;
58372;SDS011;44177;43.356;27.672;2022-09-09T12:58:00;8.63;;;1.88;;
58372;SDS011;44177;43.356;27.672;2022-09-09T13:00:29;9.68;;;1.50;;
58372;SDS011;44177;43.356;27.672;2022-09-09T13:03:00;3.60;;;1.50;;
58372;SDS011;44177;43.356;27.672;2022-09-09T13:05:28;10.88;;;1.77;;
58372;SDS011;44177;43.356;27.672;2022-09-09T13:08:01;8.68;;;1.52;;
58372;SDS011;44177;43.356;27.672;2022-09-09T13:10:28;7.55;;;1.48;;
58372;SDS011;44177;43.356;27.672;2022-09-09T13:12:58;5.90;;;1.42;;
58372;SDS011;44177;43.356;27.672;2022-09-09T13:15:26;4.28;;;1.20;;
58372;SDS011;44177;43.356;27.672;2022-09-09T13:17:56;7.60;;;2.05;;
58372;SDS011;44177;43.356;27.672;2022-09-09T13:20:31;1.83;;;1.10;;
58372;SDS011;44177;43.356;27.672;2022-09-09T13:22:56;3.10;;;0.93;;
58372;SDS011;44177;43.356;27.672;2022-09-09T13:25:26;4.50;;;1.08;;
58372;SDS011;44177;43.356;27.672;2022-09-09T13:28:04;8.02;;;1.27;;
58372;SDS011;44177;43.356;27.672;2022-09-09T13:30:31;12.00;;;1.90;;
58372;SDS011;44177;43.356;27.672;2022-09-09T13:36:12;26.92;;;2.42;;
58372;SDS011;44177;43.356;27.672;2022-09-09T13:38:36;14.32;;;1.85;;
58372;SDS011;44177;43.356;27.672;2022-09-09T13:41:08;10.98;;;1.33;;
58372;SDS011;44177;43.356;27.672;2022-09-09T13:43:42;8.02;;;1.33;;
58372;SDS011;44177;43.356;27.672;2022-09-09T13:48:58;4.78;;;1.33;;
58372;SDS011;44177;43.356;27.672;2022-09-09T13:51:37;8.30;;;1.23;;
58372;SDS011;44177;43.356;27.672;2022-09-09T13:54:04;8.68;;;1.20;;
58372;SDS011;44177;43.356;27.672;2022-09-09T13:56:32;6.22;;;1.25;;
58372;SDS011;44177;43.356;27.672;2022-09-09T13:58:58;7.93;;;1.10;;
58372;SDS011;44177;43.356;27.672;2022-09-09T14:01:24;3.80;;;1.10;;
58372;SDS011;44177;43.356;27.672;2022-09-09T14:03:49;4.28;;;1.05;;
58372;SDS011;44177;43.356;27.672;2022-09-09T14:06:16;5.80;;;1.30;;
58372;SDS011;44177;43.356;27.672;2022-09-09T14:08:42;10.15;;;1.40;;
58372;SDS011;44177;43.356;27.672;2022-09-09T14:11:08;4.93;;;1.08;;
58372;SDS011;44177;43.356;27.672;2022-09-09T14:13:37;1.33;;;1.13;;
58372;SDS011;44177;43.356;27.672;2022-09-09T14:16:02;2.97;;;1.10;;
58372;SDS011;44177;43.356;27.672;2022-09-09T14:18:28;7.60;;;1.17;;
58372;SDS011;44177;43.356;27.672;2022-09-09T14:20:54;5.75;;;1.38;;
58372;SDS011;44177;43.356;27.672;2022-09-09T14:23:19;4.30;;;1.00;;
58372;SDS011;44177;43.356;27.672;2022-09-09T14:25:46;5.00;;;1.30;;
58372;SDS011;44177;43.356;27.672;2022-09-09T14:28:14;4.70;;;1.20;;
58372;SDS011;44177;43.356;27.672;2022-09-09T14:30:40;4.15;;;1.02;;
58372;SDS011;44177;43.356;27.672;2022-09-09T14:33:07;3.65;;;1.10;;
58372;SDS011;44177;43.356;27.672;2022-09-09T14:35:34;5.72;;;1.05;;
58372;SDS011;44177;43.356;27.672;2022-09-09T14:38:01;6.45;;;1.45;;
58372;SDS011;44177;43.356;27.672;2022-09-09T14:40:27;3.53;;;0.93;;
58372;SDS011;44177;43.356;27.672;2022-09-09T14:42:53;1.63;;;1.00;;
58372;SDS011;44177;43.356;27.672;2022-09-09T14:45:18;3.05;;;1.00;;
58372;SDS011;44177;43.356;27.672;2022-09-09T14:47:46;2.13;;;1.05;;
58372;SDS011;44177;43.356;27.672;2022-09-09T14:50:12;4.45;;;1.20;;
58372;SDS011;44177;43.356;27.672;2022-09-09T14:52:37;2.28;;;1.30;;
58372;SDS011;44177;43.356;27.672;2022-09-09T14:55:03;2.28;;;0.88;;
58372;SDS011;44177;43.356;27.672;2022-09-09T14:57:30;3.13;;;1.10;;
58372;SDS011;44177;43.356;27.672;2022-09-09T14:59:56;2.50;;;1.13;;
58372;SDS011;44177;43.356;27.672;2022-09-09T15:02:21;2.15;;;1.00;;
58372;SDS011;44177;43.356;27.672;2022-09-09T15:04:47;2.15;;;1.50;;
58372;SDS011;44177;43.356;27.672;2022-09-09T15:07:14;3.38;;;1.10;;
58372;SDS011;44177;43.356;27.672;2022-09-09T15:09:41;3.78;;;1.05;;
58372;SDS011;44177;43.356;27.672;2022-09-09T15:12:07;1.88;;;1.20;;
58372;SDS011;44177;43.356;27.672;2022-09-09T15:14:32;3.63;;;1.20;;
58372;SDS011;44177;43.356;27.672;2022-09-09T15:16:58;1.88;;;1.05;;
58372;SDS011;44177;43.356;27.672;2022-09-09T15:19:23;2.15;;;1.10;;
58372;SDS011;44177;43.356;27.672;2022-09-09T15:21:49;2.53;;;1.05;;
58372;SDS011;44177;43.356;27.672;2022-09-09T15:24:14;1.85;;;1.20;;
58372;SDS011;44177;43.356;27.672;2022-09-09T15:26:41;1.75;;;1.23;;
58372;SDS011;44177;43.356;27.672;2022-09-09T15:29:06;3.17;;;1.35;;
58372;SDS011;44177;43.356;27.672;2022-09-09T15:31:33;3.45;;;1.30;;
58372;SDS011;44177;43.356;27.672;2022-09-09T15:34:00;1.42;;;1.27;;
58372;SDS011;44177;43.356;27.672;2022-09-09T15:36:31;3.22;;;1.40;;
58372;SDS011;44177;43.356;27.672;2022-09-09T15:39:08;3.42;;;1.20;;
58372;SDS011;44177;43.356;27.672;2022-09-09T15:41:37;2.22;;;1.30;;
58372;SDS011;44177;43.356;27.672;2022-09-09T15:44:04;1.63;;;1.15;;
58372;SDS011;44177;43.356;27.672;2022-09-09T15:46:37;1.50;;;1.40;;
58372;SDS011;44177;43.356;27.672;2022-09-09T15:49:08;3.47;;;1.50;;
58372;SDS011;44177;43.356;27.672;2022-09-09T15:51:35;8.80;;;1.60;;
58372;SDS011;44177;43.356;27.672;2022-09-09T15:54:02;6.45;;;1.65;;
58372;SDS011;44177;43.356;27.672;2022-09-09T15:56:29;3.03;;;1.20;;
58372;SDS011;44177;43.356;27.672;2022-09-09T15:58:56;4.18;;;1.30;;
58372;SDS011;44177;43.356;27.672;2022-09-09T16:01:22;6.10;;;1.38;;
58372;SDS011;44177;43.356;27.672;2022-09-09T16:03:48;8.10;;;1.45;;
58372;SDS011;44177;43.356;27.672;2022-09-09T16:06:16;6.68;;;1.50;;
58372;SDS011;44177;43.356;27.672;2022-09-09T16:08:44;3.88;;;1.70;;
58372;SDS011;44177;43.356;27.672;2022-09-09T16:11:12;3.60;;;1.58;;
58372;SDS011;44177;43.356;27.672;2022-09-09T16:13:44;5.55;;;1.50;;
58372;SDS011;44177;43.356;27.672;2022-09-09T16:16:11;2.90;;;1.40;;
58372;SDS011;44177;43.356;27.672;2022-09-09T16:18:39;5.18;;;1.63;;
58372;SDS011;44177;43.356;27.672;2022-09-09T16:21:06;3.20;;;1.40;;
58372;SDS011;44177;43.356;27.672;2022-09-09T16:23:33;5.65;;;1.60;;
58372;SDS011;44177;43.356;27.672;2022-09-09T16:26:01;4.70;;;1.50;;
58372;SDS011;44177;43.356;27.672;2022-09-09T16:28:27;3.95;;;1.50;;
58372;SDS011;44177;43.356;27.672;2022-09-09T16:30:53;6.22;;;1.45;;
58372;SDS011;44177;43.356;27.672;2022-09-09T16:33:19;3.65;;;1.50;;
58372;SDS011;44177;43.356;27.672;2022-09-09T16:35:45;3.22;;;1.40;;
58372;SDS011;44177;43.356;27.672;2022-09-09T16:38:11;5.70;;;1.50;;
58372;SDS011;44177;43.356;27.672;2022-09-09T16:40:36;2.10;;;1.63;;
58372;SDS011;44177;43.356;27.672;2022-09-09T16:43:03;3.95;;;1.52;;
58372;SDS011;44177;43.356;27.672;2022-09-09T16:45:29;2.15;;;1.67;;
58372;SDS011;44177;43.356;27.672;2022-09-09T16:47:55;5.20;;;1.42;;
58372;SDS011;44177;43.356;27.672;2022-09-09T16:50:21;4.47;;;1.63;;
58372;SDS011;44177;43.356;27.672;2022-09-09T16:52:47;3.30;;;1.48;;
58372;SDS011;44177;43.356;27.672;2022-09-09T16:55:12;2.45;;;1.25;;